Time;durP1;ratioP1;P1;durP2;ratioP2;P2;SDS_P1;SDS_P2;PMS_P1;PMS_P2;Temp;Humidity;BMP_temperature;BMP_pressure;BME280_temperature;BME280_humidity;BME280_pressure;Samples;Min_cycle;Max_cycle;Signal;HPM_P1;HPM_P2
2022/03/10 00:01:39;;;;;;;39.90;20.27;;;;;;;1.56;64.12;95119.25;4905209;29;20068;-78
2022/03/10 00:04:04;;;;;;;30.55;20.80;;;;;;;1.57;64.19;95113.16;4887562;29;20096;-77
2022/03/10 00:06:29;;;;;;;32.63;19.80;;;;;;;1.60;64.26;95110.25;4904270;29;20036;-77
2022/03/10 00:08:55;;;;;;;31.50;19.42;;;;;;;1.61;63.70;95119.53;4888233;29;20055;-77
2022/03/10 00:11:20;;;;;;;27.77;17.90;;;;;;;1.67;63.01;95110.38;4905126;29;20040;-77
2022/03/10 00:13:46;;;;;;;28.33;17.15;;;;;;;1.62;62.49;95116.00;4888346;29;20044;-77
2022/03/10 00:16:11;;;;;;;25.65;16.52;;;;;;;1.62;62.15;95115.19;4887053;29;20084;-77
2022/03/10 00:18:37;;;;;;;27.70;17.30;;;;;;;1.57;62.47;95113.16;4887885;29;20039;-77
2022/03/10 00:21:02;;;;;;;26.17;16.88;;;;;;;1.48;62.98;95112.41;4902761;29;20036;-77
2022/03/10 00:23:28;;;;;;;25.63;17.80;;;;;;;1.55;62.07;95104.84;4905143;29;20100;-77
2022/03/10 00:25:55;;;;;;;29.98;18.60;;;;;;;1.52;62.05;95106.94;4903406;29;20043;-77
2022/03/10 00:28:20;;;;;;;39.67;19.25;;;;;;;1.52;62.39;95105.19;4901798;29;20044;-77
2022/03/10 00:30:46;;;;;;;37.63;20.10;;;;;;;1.48;62.15;95106.47;4904586;29;20032;-78
2022/03/10 00:33:11;;;;;;;30.48;19.52;;;;;;;1.45;62.83;95101.66;4886969;29;20036;-77
2022/03/10 00:35:36;;;;;;;33.92;19.05;;;;;;;1.43;63.00;95104.41;4903162;29;20044;-77
2022/03/10 00:38:02;;;;;;;35.40;20.50;;;;;;;1.36;62.25;95111.19;4903640;29;20092;-77
2022/03/10 00:40:28;;;;;;;26.85;18.45;;;;;;;1.50;62.11;95104.56;4887739;29;20037;-77
2022/03/10 00:42:53;;;;;;;28.17;17.67;;;;;;;1.42;62.29;95096.88;4888310;29;20028;-76
2022/03/10 00:45:18;;;;;;;29.70;18.67;;;;;;;1.39;63.11;95099.78;4903780;29;20595;-77
2022/03/10 00:47:44;;;;;;;27.25;17.95;;;;;;;1.37;62.70;95099.16;4887654;29;20033;-76
2022/03/10 00:50:10;;;;;;;28.77;17.80;;;;;;;1.41;62.20;95092.72;4887469;29;20037;-77
2022/03/10 00:52:42;;;;;;;26.42;16.67;;;;;;;1.44;62.37;95089.81;4904552;29;20115;-77
2022/03/10 00:55:09;;;;;;;24.75;16.58;;;;;;;1.36;62.54;95092.44;4903938;29;20556;-77
2022/03/10 00:57:34;;;;;;;30.52;18.70;;;;;;;1.36;62.34;95089.88;4909939;29;20211;-77
2022/03/10 01:00:00;;;;;;;32.03;18.85;;;;;;;1.27;62.47;95088.31;4904137;29;20488;-77
2022/03/10 01:02:25;;;;;;;35.97;19.60;;;;;;;1.29;62.17;95086.38;4916699;29;20024;-77
2022/03/10 01:04:50;;;;;;;29.98;17.23;;;;;;;1.20;62.57;95088.19;4902056;29;20036;-77
2022/03/10 01:07:16;;;;;;;31.33;18.38;;;;;;;1.15;62.34;95088.72;4904426;29;20040;-77
2022/03/10 01:09:41;;;;;;;24.92;17.75;;;;;;;1.17;62.33;95088.53;4903002;29;20068;-76
2022/03/10 01:12:07;;;;;;;38.72;18.13;;;;;;;1.14;62.99;95088.88;4903495;29;20045;-77
2022/03/10 01:14:32;;;;;;;19.92;15.32;;;;;;;1.13;62.37;95090.63;4904416;29;20036;-76
2022/03/10 01:16:58;;;;;;;25.50;16.15;;;;;;;1.14;61.96;95082.00;4886824;29;20043;-77
2022/03/10 01:19:23;;;;;;;31.63;18.25;;;;;;;1.14;62.39;95089.69;4902952;29;20029;-77
2022/03/10 01:21:49;;;;;;;31.90;17.00;;;;;;;1.22;62.10;95085.47;4903966;29;20047;-76
2022/03/10 01:24:14;;;;;;;23.90;14.93;;;;;;;1.29;61.59;95086.38;4904357;29;20040;-77
2022/03/10 01:26:40;;;;;;;36.63;16.85;;;;;;;1.15;62.00;95080.22;4903664;29;20051;-77
2022/03/10 01:29:05;;;;;;;24.65;14.90;;;;;;;1.12;62.56;95085.66;4902814;29;20043;-77
2022/03/10 01:31:31;;;;;;;25.77;15.82;;;;;;;1.23;61.33;95087.06;4886587;29;20044;-77
2022/03/10 01:33:57;;;;;;;21.23;15.05;;;;;;;1.22;61.80;95080.34;4887353;29;20033;-77
2022/03/10 01:36:23;;;;;;;22.40;14.73;;;;;;;1.20;62.10;95077.94;4903071;29;20074;-77
2022/03/10 01:38:48;;;;;;;25.00;16.75;;;;;;;1.22;62.40;95081.16;4902338;29;20042;-77
2022/03/10 01:41:14;;;;;;;24.65;15.57;;;;;;;1.10;61.65;95072.22;4901948;29;20495;-77
2022/03/10 01:43:56;;;;;;;27.27;16.50;;;;;;;1.13;62.66;95084.69;4956782;23;20049;-77
2022/03/10 01:46:21;;;;;;;24.97;16.43;;;;;;;1.24;62.35;95079.22;4891989;29;20041;-77
2022/03/10 01:48:47;;;;;;;26.30;17.50;;;;;;;1.26;61.91;95081.59;4894611;29;20293;-77
2022/03/10 01:51:13;;;;;;;26.40;15.95;;;;;;;1.19;61.37;95077.16;4894473;29;20416;-76
2022/03/10 01:53:38;;;;;;;23.33;15.85;;;;;;;1.21;61.64;95074.44;4894397;29;20028;-77
2022/03/10 01:56:04;;;;;;;29.23;15.70;;;;;;;1.23;61.51;95079.38;4878006;29;20037;-77
2022/03/10 01:58:29;;;;;;;25.48;17.17;;;;;;;1.20;61.91;95077.94;4893686;29;20039;-77
2022/03/10 02:00:55;;;;;;;31.75;17.02;;;;;;;1.08;62.13;95082.63;4895528;23;20039;-77
2022/03/10 02:03:20;;;;;;;24.90;16.52;;;;;;;1.15;61.97;95087.91;4932217;29;20044;-77
2022/03/10 02:05:46;;;;;;;28.27;17.55;;;;;;;1.17;61.92;95084.22;4911696;29;20039;-77
2022/03/10 02:10:57;;;;;;;27.83;18.25;;;;;;;1.09;61.80;95081.66;4913231;29;20094;-77
2022/03/10 02:13:22;;;;;;;28.45;18.33;;;;;;;1.07;61.97;95078.47;4911086;29;20035;-76
2022/03/10 02:18:31;;;;;;;31.90;18.10;;;;;;;1.11;61.35;95078.94;4916333;29;20046;-77
2022/03/10 02:20:57;;;;;;;28.75;18.70;;;;;;;1.07;62.29;95078.47;4916584;29;20032;-77
2022/03/10 02:23:23;;;;;;;29.38;19.55;;;;;;;1.07;62.22;95081.03;4915376;29;20043;-77
2022/03/10 02:25:48;;;;;;;34.35;20.65;;;;;;;1.12;61.06;95085.66;4915402;29;20058;-78
2022/03/10 02:28:13;;;;;;;34.95;20.35;;;;;;;1.07;61.99;95083.59;4915259;29;20158;-77
2022/03/10 02:30:39;;;;;;;34.33;21.45;;;;;;;1.03;61.94;95087.47;4916800;29;20392;-77
2022/03/10 02:33:04;;;;;;;41.55;22.05;;;;;;;0.95;61.85;95090.03;4915043;29;20436;-77
2022/03/10 02:35:30;;;;;;;41.67;24.02;;;;;;;0.94;61.86;95092.78;4899114;29;20476;-77
2022/03/10 02:37:56;;;;;;;49.63;25.88;;;;;;;0.87;62.25;95098.56;4914924;29;20035;-76
2022/03/10 02:40:22;;;;;;;37.65;22.10;;;;;;;0.92;62.34;95098.06;4912576;29;20043;-76
2022/03/10 02:42:47;;;;;;;36.10;20.80;;;;;;;0.94;61.66;95097.91;4915804;29;20024;-76
2022/03/10 02:45:16;;;;;;;28.75;17.60;;;;;;;1.03;61.23;95091.78;4915308;29;20024;-77
2022/03/10 02:47:41;;;;;;;30.85;19.73;;;;;;;1.06;61.09;95092.25;4915666;29;20147;-76
2022/03/10 02:50:07;;;;;;;33.85;19.33;;;;;;;1.07;61.35;95091.28;4915937;29;20509;-76
2022/03/10 02:52:36;;;;;;;24.77;17.00;;;;;;;1.08;61.35;95100.56;4916074;29;20036;-76
2022/03/10 02:55:05;;;;;;;38.72;21.60;;;;;;;1.08;61.37;95095.44;4914686;29;20040;-76
2022/03/10 02:57:31;;;;;;;45.40;23.98;;;;;;;1.01;61.93;95102.19;4898180;29;20132;-76
2022/03/10 02:59:58;;;;;;;39.78;24.15;;;;;;;0.89;61.56;95106.06;4898728;29;20107;-76
2022/03/10 03:02:23;;;;;;;37.35;23.85;;;;;;;0.69;62.21;95102.31;4898748;29;20076;-77
2022/03/10 03:04:49;;;;;;;40.42;22.65;;;;;;;0.40;63.26;95113.84;4898405;29;20044;-76
2022/03/10 03:07:14;;;;;;;28.90;19.55;;;;;;;0.20;63.84;95117.72;4897945;29;20037;-76
2022/03/10 03:09:40;;;;;;;36.53;20.73;;;;;;;0.00;64.64;95114.69;4898843;29;20040;-77
2022/03/10 03:12:05;;;;;;;33.85;20.52;;;;;;;-0.31;65.76;95114.50;4882923;29;20385;-77
2022/03/10 03:14:31;;;;;;;31.55;20.00;;;;;;;-0.78;67.68;95117.56;4915719;29;20039;-76
2022/03/10 03:16:57;;;;;;;29.02;18.33;;;;;;;-0.80;67.40;95116.13;4914129;29;20056;-77
2022/03/10 03:19:23;;;;;;;29.95;16.00;;;;;;;-0.91;65.94;95114.63;4898092;29;20047;-76
2022/03/10 03:21:48;;;;;;;24.92;15.85;;;;;;;-0.99;64.34;95122.25;4923985;23;20065;-77
2022/03/10 03:24:13;;;;;;;26.60;16.13;;;;;;;-1.04;62.70;95114.25;4894390;29;20036;-77
2022/03/10 03:26:39;;;;;;;24.38;15.25;;;;;;;-1.20;63.53;95109.88;4895449;29;20036;-77
2022/03/10 03:29:04;;;;;;;18.33;13.82;;;;;;;-1.37;60.67;95118.41;4892590;29;20048;-76
2022/03/10 03:31:33;;;;;;;24.48;14.45;;;;;;;-1.48;61.06;95127.09;4896583;29;20036;-77
2022/03/10 03:33:58;;;;;;;17.65;12.77;;;;;;;-1.63;60.33;95131.13;4894270;29;20049;-77
2022/03/10 03:36:24;;;;;;;19.33;13.18;;;;;;;-1.94;61.04;95136.66;4895170;29;20405;-76
2022/03/10 03:38:50;;;;;;;23.00;14.32;;;;;;;-1.89;61.17;95131.13;4896458;29;20048;-76
2022/03/10 03:41:15;;;;;;;21.73;12.73;;;;;;;-1.87;60.36;95137.66;4896319;29;20425;-76
2022/03/10 03:43:41;;;;;;;18.08;12.60;;;;;;;-1.81;60.76;95131.97;4894985;29;20482;-76
2022/03/10 03:46:06;;;;;;;19.90;12.15;;;;;;;-1.94;58.30;95120.56;4877394;29;20036;-77
2022/03/10 03:48:31;;;;;;;13.38;10.50;;;;;;;-1.94;58.18;95126.47;4895762;29;20080;-76
2022/03/10 03:50:57;;;;;;;15.15;10.98;;;;;;;-2.25;57.40;95127.78;4896231;29;20040;-77
2022/03/10 03:53:22;;;;;;;15.40;10.82;;;;;;;-2.31;58.38;95123.25;4895417;29;20496;-77
2022/03/10 03:55:48;;;;;;;17.05;10.55;;;;;;;-2.06;57.50;95132.72;4893780;29;20466;-77
2022/03/10 03:58:13;;;;;;;13.40;9.73;;;;;;;-2.02;57.26;95141.69;4892786;29;20041;-77
2022/03/10 04:00:38;;;;;;;17.45;10.25;;;;;;;-1.85;57.01;95143.41;4894746;29;20035;-77
2022/03/10 04:03:08;;;;;;;15.88;9.05;;;;;;;-1.67;57.00;95157.88;4896036;29;20405;-77
2022/03/10 04:05:34;;;;;;;12.00;8.88;;;;;;;-1.51;55.89;95150.34;4896997;29;20477;-77
2022/03/10 04:08:00;;;;;;;11.30;9.00;;;;;;;-1.58;54.78;95146.81;4882944;29;20501;-77
2022/03/10 04:10:25;;;;;;;13.13;9.60;;;;;;;-1.68;55.23;95151.97;4895808;29;20033;-78
2022/03/10 04:12:50;;;;;;;15.63;9.52;;;;;;;-1.55;56.04;95156.69;4894975;29;20100;-77
2022/03/10 04:15:16;;;;;;;15.88;9.73;;;;;;;-1.85;55.63;95161.25;4896533;29;20092;-77
2022/03/10 04:17:42;;;;;;;15.00;8.73;;;;;;;-1.94;56.55;95159.59;4864200;29;20047;-77
2022/03/10 04:20:12;;;;;;;11.38;8.93;;;;;;;-1.87;56.48;95165.69;4895212;29;20047;-78
2022/03/10 04:22:38;;;;;;;11.70;9.43;;;;;;;-1.97;56.54;95157.31;4879929;29;20032;-77
2022/03/10 04:25:05;;;;;;;12.05;8.95;;;;;;;-2.09;56.92;95157.72;4895354;29;20104;-77
2022/03/10 04:27:31;;;;;;;12.35;10.25;;;;;;;-2.30;56.64;95155.41;4877143;29;20441;-77
2022/03/10 04:29:56;;;;;;;17.02;10.43;;;;;;;-2.58;58.52;95158.03;4893710;29;20026;-76
2022/03/10 04:32:21;;;;;;;19.80;9.68;;;;;;;-2.59;57.76;95155.63;4895862;29;20404;-77
2022/03/10 04:34:47;;;;;;;14.18;9.30;;;;;;;-2.55;58.01;95165.38;4896001;29;20040;-77
2022/03/10 04:37:13;;;;;;;14.43;9.77;;;;;;;-2.35;57.60;95163.50;4895161;29;20092;-77
2022/03/10 04:39:38;;;;;;;11.55;8.57;;;;;;;-2.23;57.27;95169.19;4878560;29;20032;-77
2022/03/10 04:42:04;;;;;;;13.65;8.35;;;;;;;-2.18;56.86;95169.56;4894246;29;20037;-77
2022/03/10 04:44:29;;;;;;;10.40;8.10;;;;;;;-2.08;56.68;95172.03;4895382;29;20032;-77
2022/03/10 04:46:55;;;;;;;16.63;10.98;;;;;;;-1.93;56.60;95168.84;4895522;29;20567;-77
2022/03/10 04:49:20;;;;;;;15.73;7.88;;;;;;;-1.69;56.14;95180.16;4895276;29;20386;-77
2022/03/10 04:51:46;;;;;;;13.45;8.52;;;;;;;-1.63;55.35;95182.94;4894251;29;20473;-77
2022/03/10 04:54:11;;;;;;;10.48;8.07;;;;;;;-1.75;55.50;95191.78;4878351;29;20041;-77
2022/03/10 04:56:36;;;;;;;10.48;7.82;;;;;;;-1.85;55.23;95191.84;4894296;29;20043;-76
2022/03/10 04:59:02;;;;;;;11.00;8.75;;;;;;;-1.91;55.85;95194.97;4895131;29;20024;-76
2022/03/10 05:01:29;;;;;;;8.82;7.88;;;;;;;-1.82;56.00;95196.63;4896271;29;20049;-77
2022/03/10 05:03:54;;;;;;;10.82;8.70;;;;;;;-1.64;55.18;95203.47;4893964;29;20037;-75
2022/03/10 05:06:20;;;;;;;13.70;8.15;;;;;;;-1.44;54.99;95199.81;4878198;29;20039;-75
2022/03/10 05:08:46;;;;;;;12.32;8.38;;;;;;;-1.30;55.10;95209.50;4895064;29;20912;-77
2022/03/10 05:11:11;;;;;;;10.02;8.05;;;;;;;-0.87;54.16;95210.38;4877800;29;20033;-75
2022/03/10 05:13:37;;;;;;;13.05;8.43;;;;;;;-0.38;53.15;95218.25;4862555;29;20536;-75
2022/03/10 05:16:02;;;;;;;13.38;8.65;;;;;;;0.04;51.57;95217.41;4862636;29;20037;-74
2022/03/10 05:18:28;;;;;;;10.27;7.68;;;;;;;0.35;50.44;95227.84;4893318;29;20124;-74
2022/03/10 05:20:53;;;;;;;13.98;8.70;;;;;;;0.50;49.48;95224.50;4893649;29;20033;-79
2022/03/10 05:23:19;;;;;;;16.65;8.77;;;;;;;0.44;49.13;95230.25;4893881;29;20079;-75
2022/03/10 05:25:44;;;;;;;9.90;7.47;;;;;;;0.54;49.14;95238.56;4894228;29;20469;-76
2022/03/10 05:28:14;;;;;;;11.10;8.23;;;;;;;0.74;48.37;95249.28;4893321;29;20044;-76
2022/03/10 05:30:40;;;;;;;10.27;7.78;;;;;;;0.89;47.92;95252.00;4857151;29;20104;-79
2022/03/10 05:33:06;;;;;;;10.75;8.38;;;;;;;1.02;47.75;95259.19;4895018;29;20116;-76
2022/03/10 05:35:31;;;;;;;10.18;7.72;;;;;;;1.05;47.71;95259.66;4877580;29;20033;-76
2022/03/10 05:37:57;;;;;;;14.48;9.02;;;;;;;0.81;46.90;95264.78;4878210;29;20041;-77
2022/03/10 05:40:23;;;;;;;11.15;8.30;;;;;;;0.73;47.79;95264.81;4893312;29;20093;-77
2022/03/10 05:42:50;;;;;;;16.20;7.82;;;;;;;0.41;47.92;95252.78;4894467;29;20458;-78
2022/03/10 05:45:20;;;;;;;18.85;9.20;;;;;;;0.57;47.42;95260.47;4876612;29;20044;-77
2022/03/10 05:47:48;;;;;;;11.75;8.38;;;;;;;0.55;47.97;95268.31;4878194;29;20028;-77
2022/03/10 05:50:14;;;;;;;11.43;8.70;;;;;;;0.36;47.83;95260.16;4861573;29;20669;-76
2022/03/10 05:52:40;;;;;;;15.73;8.95;;;;;;;0.38;48.00;95261.59;4894622;29;20037;-79
2022/03/10 05:55:06;;;;;;;10.30;8.20;;;;;;;0.56;47.62;95269.13;4879334;29;20405;-77
2022/03/10 05:57:32;;;;;;;12.52;8.02;;;;;;;0.88;46.88;95273.44;4892884;29;20036;-77
2022/03/10 05:59:57;;;;;;;57.22;24.23;;;;;;;1.13;47.57;95276.78;4877915;29;20033;-77
2022/03/10 06:02:22;;;;;;;15.85;8.50;;;;;;;1.38;45.91;95275.78;4894114;29;20051;-78
2022/03/10 06:04:48;;;;;;;11.60;8.10;;;;;;;1.53;46.14;95273.34;4877394;29;20640;-78
2022/03/10 06:07:13;;;;;;;12.40;9.30;;;;;;;2.03;45.26;95274.75;4895245;29;20091;-77
2022/03/10 06:09:39;;;;;;;13.00;9.35;;;;;;;2.26;45.56;95275.59;4896187;29;20037;-77
2022/03/10 06:12:05;;;;;;;13.60;9.65;;;;;;;2.61;44.30;95268.34;4877187;29;20402;-77
2022/03/10 06:14:30;;;;;;;15.02;10.02;;;;;;;2.87;44.15;95273.91;4894362;29;20036;-78
2022/03/10 06:16:56;;;;;;;16.70;10.48;;;;;;;3.25;44.17;95281.63;4893112;29;20029;-77
2022/03/10 06:19:21;;;;;;;26.38;10.73;;;;;;;3.47;43.21;95283.34;4893988;29;20092;-77
2022/03/10 06:21:47;;;;;;;15.30;10.63;;;;;;;3.82;41.15;95281.03;4914073;23;20072;-77
2022/03/10 06:24:13;;;;;;;17.42;10.70;;;;;;;4.18;40.87;95283.66;4915173;29;20028;-78
2022/03/10 06:26:38;;;;;;;16.35;10.77;;;;;;;4.51;40.84;95278.88;4917769;29;20441;-77
2022/03/10 06:29:04;;;;;;;16.63;10.02;;;;;;;4.65;38.66;95280.59;4920715;29;20044;-78
2022/03/10 06:31:30;;;;;;;13.00;9.40;;;;;;;4.67;39.14;95278.63;4914522;29;20481;-77
2022/03/10 06:33:55;;;;;;;13.85;9.52;;;;;;;4.95;39.11;95286.44;4882897;29;20465;-77
2022/03/10 06:36:21;;;;;;;16.52;10.25;;;;;;;5.10;37.18;95299.25;4913364;29;20039;-77
2022/03/10 06:38:46;;;;;;;10.10;8.13;;;;;;;4.89;36.33;95297.50;4911507;29;20099;-77
2022/03/10 06:41:12;;;;;;;7.53;5.85;;;;;;;4.88;34.90;95297.66;4912864;29;20044;-77
2022/03/10 06:43:37;;;;;;;7.43;6.10;;;;;;;4.79;33.31;95297.78;4912640;29;20028;-77
2022/03/10 06:46:04;;;;;;;7.85;6.20;;;;;;;4.82;33.59;95307.72;4895561;29;20040;-77
2022/03/10 06:48:29;;;;;;;4.28;3.97;;;;;;;4.29;32.19;95310.72;4911130;29;20021;-77
2022/03/10 06:50:55;;;;;;;4.25;3.95;;;;;;;3.88;32.21;95313.75;4910750;29;20042;-77
2022/03/10 06:53:20;;;;;;;4.18;3.80;;;;;;;3.72;32.41;95316.50;4910850;29;20024;-77
2022/03/10 06:55:45;;;;;;;7.40;4.95;;;;;;;3.49;33.54;95309.66;4912351;29;20047;-77
2022/03/10 06:58:11;;;;;;;5.82;4.85;;;;;;;3.75;33.66;95314.41;4912415;29;20029;-77
2022/03/10 07:00:36;;;;;;;4.07;3.78;;;;;;;3.70;32.41;95318.47;4913412;29;20044;-76
2022/03/10 07:03:02;;;;;;;4.78;4.28;;;;;;;4.02;32.56;95315.53;4913854;29;20028;-75
2022/03/10 07:05:27;;;;;;;5.57;4.70;;;;;;;3.84;33.40;95339.06;4914642;29;20043;-74
2022/03/10 07:07:53;;;;;;;7.90;6.85;;;;;;;3.59;33.90;95330.78;4913153;29;20020;-75
2022/03/10 07:10:19;;;;;;;10.70;6.93;;;;;;;2.82;34.68;95317.31;4915142;29;20583;-74
2022/03/10 07:12:44;;;;;;;14.82;6.47;;;;;;;2.41;36.18;95338.06;4914252;29;20036;-74
2022/03/10 07:15:11;;;;;;;9.27;7.35;;;;;;;2.06;37.42;95346.25;4915419;29;20051;-74
2022/03/10 07:17:37;;;;;;;7.97;6.97;;;;;;;1.80;38.21;95341.38;4914066;29;20063;-75
2022/03/10 07:20:02;;;;;;;12.77;7.30;;;;;;;2.23;38.52;95342.66;4898766;29;20496;-75
2022/03/10 07:22:28;;;;;;;14.48;8.63;;;;;;;2.60;38.20;95339.44;4915100;29;20088;-75
2022/03/10 07:24:53;;;;;;;10.15;7.70;;;;;;;2.82;37.68;95332.72;4914349;29;20036;-75
2022/03/10 07:27:19;;;;;;;9.55;7.10;;;;;;;3.05;36.85;95339.59;4914972;29;20040;-73
2022/03/10 07:29:44;;;;;;;11.07;6.93;;;;;;;3.22;36.70;95348.78;4915295;29;20036;-73
2022/03/10 07:32:10;;;;;;;9.77;7.13;;;;;;;3.23;36.55;95340.09;4914145;29;20059;-75
2022/03/10 07:34:35;;;;;;;8.20;5.05;;;;;;;3.42;35.77;95344.78;4898000;29;20040;-75
2022/03/10 07:37:01;;;;;;;9.63;6.30;;;;;;;3.29;35.49;95344.56;4897769;29;20028;-76
2022/03/10 07:39:26;;;;;;;8.75;6.03;;;;;;;3.35;35.18;95343.06;4913279;29;20457;-75
2022/03/10 07:41:52;;;;;;;8.82;6.30;;;;;;;3.18;35.33;95352.69;4913664;29;20032;-77
2022/03/10 07:44:17;;;;;;;8.15;6.18;;;;;;;2.88;36.08;95350.00;4898057;29;20477;-75
2022/03/10 07:46:42;;;;;;;8.43;6.65;;;;;;;2.88;36.43;95350.00;4914861;29;20032;-75
2022/03/10 07:49:08;;;;;;;10.52;6.47;;;;;;;2.84;36.91;95361.59;4897822;29;20091;-74
2022/03/10 07:51:34;;;;;;;6.00;5.40;;;;;;;2.72;35.16;95357.81;4914801;29;20432;-75
2022/03/10 07:53:59;;;;;;;8.07;6.50;;;;;;;2.35;36.42;95361.03;4895980;29;20038;-75
2022/03/10 07:56:35;;;;;;;8.02;6.03;;;;;;;2.28;36.87;95376.31;4915004;29;20568;-74
2022/03/10 07:59:00;;;;;;;7.07;5.88;;;;;;;2.28;36.67;95365.25;4914286;29;20412;-74
2022/03/10 08:01:26;;;;;;;7.68;6.35;;;;;;;2.53;36.55;95356.47;4897960;29;20047;-74
2022/03/10 08:03:51;;;;;;;11.00;6.63;;;;;;;2.92;36.16;95369.22;4914672;29;20051;-74
2022/03/10 08:06:16;;;;;;;7.60;6.40;;;;;;;3.01;35.74;95359.72;4914703;29;20043;-74
2022/03/10 08:08:43;;;;;;;7.72;5.75;;;;;;;2.83;35.57;95362.56;4913832;29;20043;-74
2022/03/10 08:11:09;;;;;;;6.68;5.75;;;;;;;2.64;35.36;95363.00;4914647;29;20043;-75
2022/03/10 08:13:34;;;;;;;8.38;5.15;;;;;;;1.63;37.17;95370.56;4896720;29;20028;-74
2022/03/10 08:16:00;;;;;;;7.13;5.35;;;;;;;1.16;38.19;95364.38;4914668;29;20036;-75
2022/03/10 08:18:26;;;;;;;5.57;4.95;;;;;;;1.43;38.04;95359.84;4912134;29;20059;-76
2022/03/10 08:20:51;;;;;;;8.45;6.05;;;;;;;1.31;38.02;95371.41;4913179;29;20039;-75
2022/03/10 08:23:18;;;;;;;6.30;5.70;;;;;;;1.10;38.41;95364.19;4914394;29;20032;-75
2022/03/10 08:25:44;;;;;;;7.63;6.07;;;;;;;1.37;38.55;95363.06;4914302;29;20042;-75
2022/03/10 08:28:09;;;;;;;10.48;5.93;;;;;;;1.54;38.50;95382.59;4912882;29;20032;-76
2022/03/10 08:30:35;;;;;;;5.70;5.10;;;;;;;1.64;37.97;95383.22;4896986;29;20043;-75
2022/03/10 08:33:00;;;;;;;9.77;5.47;;;;;;;1.38;38.00;95378.28;4912548;29;20488;-75
2022/03/10 08:35:26;;;;;;;5.55;5.00;;;;;;;1.57;38.11;95384.81;4913710;29;20381;-75
2022/03/10 08:37:51;;;;;;;6.00;4.93;;;;;;;1.65;38.26;95379.69;4881257;29;20043;-75
2022/03/10 08:40:19;;;;;;;5.72;5.05;;;;;;;2.03;37.92;95377.38;4912416;29;20489;-75
2022/03/10 08:42:45;;;;;;;8.15;5.68;;;;;;;2.54;37.40;95372.66;4912745;29;20032;-75
2022/03/10 08:45:10;;;;;;;5.65;5.13;;;;;;;2.47;36.25;95382.03;4912805;29;20038;-73
2022/03/10 08:47:36;;;;;;;11.38;5.28;;;;;;;2.44;36.93;95379.75;4912764;29;20481;-75
2022/03/10 08:50:01;;;;;;;9.90;4.97;;;;;;;1.94;37.35;95383.47;4913927;29;20040;-75
2022/03/10 08:52:27;;;;;;;5.57;4.35;;;;;;;1.83;36.92;95381.28;4912418;29;20043;-75
2022/03/10 08:54:52;;;;;;;5.80;4.40;;;;;;;1.97;36.67;95372.91;4913848;29;20500;-75
2022/03/10 08:57:18;;;;;;;10.35;5.45;;;;;;;2.14;36.52;95378.78;4896794;29;20031;-75
2022/03/10 08:59:45;;;;;;;6.45;4.90;;;;;;;2.00;36.71;95387.97;4912399;29;20036;-75
2022/03/10 09:02:12;;;;;;;7.07;4.55;;;;;;;2.15;35.53;95381.19;4912474;29;20088;-75
2022/03/10 09:04:37;;;;;;;5.50;4.32;;;;;;;2.10;35.72;95378.28;4912647;29;20028;-74
2022/03/10 09:07:03;;;;;;;5.57;4.15;;;;;;;2.13;35.56;95372.84;4912540;29;20427;-75
2022/03/10 09:09:28;;;;;;;4.78;4.30;;;;;;;2.08;34.43;95385.34;4914110;29;20492;-75
2022/03/10 09:11:54;;;;;;;5.43;4.15;;;;;;;2.26;34.55;95378.22;4914468;29;20091;-77
2022/03/10 09:14:20;;;;;;;6.82;4.45;;;;;;;2.21;34.94;95370.25;4914078;29;20060;-76
2022/03/10 09:16:45;;;;;;;7.53;4.20;;;;;;;2.07;34.75;95370.94;4913148;29;20043;-76
2022/03/10 09:19:11;;;;;;;13.32;7.93;;;;;;;1.69;34.55;95375.03;4912548;29;20039;-74
2022/03/10 09:21:36;;;;;;;6.97;5.35;;;;;;;1.69;34.13;95369.91;4896627;29;20057;-75
2022/03/10 09:24:01;;;;;;;3.85;3.53;;;;;;;1.59;34.34;95370.06;4911728;29;20492;-76
2022/03/10 09:26:27;;;;;;;4.90;4.15;;;;;;;1.74;34.64;95368.44;4913247;29;20047;-74
2022/03/10 09:28:52;;;;;;;4.13;3.72;;;;;;;2.01;33.14;95372.41;4912521;29;20047;-74
2022/03/10 09:31:18;;;;;;;4.03;3.63;;;;;;;1.71;33.22;95368.78;4912064;29;20040;-74
2022/03/10 09:33:45;;;;;;;12.90;3.60;;;;;;;1.88;33.80;95353.34;4912570;29;20516;-74
2022/03/10 09:36:10;;;;;;;6.20;3.92;;;;;;;1.99;32.93;95361.50;4896106;29;20040;-75
2022/03/10 09:38:36;;;;;;;3.90;3.60;;;;;;;0.83;33.38;95358.41;4911875;29;20472;-74
2022/03/10 09:41:01;;;;;;;4.32;4.03;;;;;;;0.67;33.85;95368.63;4911629;29;20468;-75
2022/03/10 09:43:28;;;;;;;5.22;4.30;;;;;;;0.57;35.34;95360.28;4912092;29;20937;-74
2022/03/10 09:45:53;;;;;;;4.32;3.95;;;;;;;0.80;34.07;95363.03;4911838;29;20036;-76
2022/03/10 09:48:19;;;;;;;6.80;4.22;;;;;;;1.12;36.57;95360.50;4916378;29;20036;-81
2022/03/10 09:50:48;;;;;;;5.13;4.70;;;;;;;1.58;37.68;95368.47;4914762;29;20032;-80
2022/03/10 09:53:14;;;;;;;9.02;4.32;;;;;;;1.03;37.13;95363.22;4884117;29;20476;-81
2022/03/10 09:55:40;;;;;;;5.47;4.20;;;;;;;0.92;36.33;95372.00;4899508;29;20040;-80
2022/03/10 09:58:06;;;;;;;5.50;4.80;;;;;;;0.57;36.49;95368.75;4899137;29;20040;-80
2022/03/10 10:00:31;;;;;;;5.95;4.05;;;;;;;0.48;36.38;95369.69;4909213;23;20044;-80
2022/03/10 10:02:56;;;;;;;4.88;3.95;;;;;;;0.69;37.55;95371.03;4934174;29;20027;-80
2022/03/10 10:05:30;;;;;;;7.35;4.05;;;;;;;0.76;36.42;95366.88;4926590;29;20149;-80
2022/03/10 10:08:05;;;;;;;11.50;4.72;;;;;;;0.83;36.02;95372.97;4906315;29;20028;-80
2022/03/10 10:10:31;;;;;;;4.85;4.45;;;;;;;0.58;36.20;95372.13;4923428;29;20111;-81
2022/03/10 10:12:57;;;;;;;9.35;4.90;;;;;;;0.47;35.93;95383.44;4924357;29;20032;-80
2022/03/10 10:15:23;;;;;;;9.30;4.38;;;;;;;0.25;35.33;95384.00;4892353;29;20043;-80
2022/03/10 10:17:57;;;;;;;4.47;3.85;;;;;;;0.24;35.96;95374.72;4926837;29;20040;-80
2022/03/10 10:20:23;;;;;;;4.43;4.13;;;;;;;0.37;37.66;95381.97;4911818;29;20036;-80
2022/03/10 10:22:50;;;;;;;4.72;4.28;;;;;;;0.46;35.97;95381.03;4909236;29;20051;-80
2022/03/10 10:25:20;;;;;;;5.65;4.10;;;;;;;0.94;35.37;95384.66;4893792;29;20027;-80
2022/03/10 10:27:46;;;;;;;5.82;4.70;;;;;;;1.41;35.92;95372.81;4913271;29;20032;-78
2022/03/10 10:30:12;;;;;;;4.95;4.45;;;;;;;1.69;35.30;95380.97;4908939;29;20125;-80
2022/03/10 10:32:55;;;;;;;4.82;4.43;;;;;;;1.67;35.88;95382.91;4905000;29;20119;-80
2022/03/10 10:35:21;;;;;;;5.07;4.40;;;;;;;1.36;36.06;95390.44;4930435;29;20119;-79
2022/03/10 10:37:54;;;;;;;4.30;3.90;;;;;;;0.65;34.14;95391.03;4940067;29;20043;-79
2022/03/10 10:40:21;;;;;;;5.07;4.47;;;;;;;0.45;36.92;95393.03;4938150;29;20059;-79
2022/03/10 10:42:49;;;;;;;4.70;4.30;;;;;;;0.64;36.13;95379.16;4958007;29;20027;-79
2022/03/10 10:45:34;;;;;;;5.10;4.63;;;;;;;0.87;35.53;95387.06;4963443;23;20569;-80
2022/03/10 10:48:08;;;;;;;6.70;4.68;;;;;;;0.99;36.11;95385.81;4919235;29;20059;-79
2022/03/10 10:50:36;;;;;;;4.93;4.32;;;;;;;1.19;34.93;95378.59;4928886;29;20046;-79
2022/03/10 10:53:01;;;;;;;4.50;4.10;;;;;;;1.23;34.78;95379.06;4917308;29;20043;-74
2022/03/10 10:55:45;;;;;;;3.88;3.58;;;;;;;1.77;34.69;95372.44;4915202;29;20028;-74
2022/03/10 10:58:13;;;;;;;4.65;4.28;;;;;;;2.21;34.46;95370.25;4929503;29;20504;-74
2022/03/10 11:00:43;;;;;;;4.70;4.35;;;;;;;1.94;35.45;95368.88;4897997;29;20069;-74
2022/03/10 11:03:20;;;;;;;7.75;4.47;;;;;;;1.59;36.77;95364.94;4899202;29;20047;-74
2022/03/10 11:05:47;;;;;;;5.07;4.03;;;;;;;1.68;36.03;95358.88;4898603;29;20036;-74
2022/03/10 11:08:30;;;;;;;9.45;4.93;;;;;;;1.61;35.54;95373.28;4914153;29;20118;-75
2022/03/10 11:10:55;;;;;;;4.68;4.38;;;;;;;1.62;34.56;95374.88;4914162;29;20063;-74
2022/03/10 11:13:21;;;;;;;5.03;4.53;;;;;;;1.75;34.59;95370.06;4913266;29;20040;-74
2022/03/10 11:15:47;;;;;;;8.63;4.55;;;;;;;1.30;34.58;95367.22;4914169;29;20079;-75
2022/03/10 11:18:13;;;;;;;4.55;4.15;;;;;;;1.49;35.34;95357.47;4914032;29;20198;-74
2022/03/10 11:20:39;;;;;;;6.05;4.38;;;;;;;1.56;34.67;95364.47;4915330;29;20115;-74
2022/03/10 11:23:26;;;;;;;9.10;4.32;;;;;;;1.50;35.57;95366.75;4898567;29;20046;-75
2022/03/10 11:25:55;;;;;;;7.40;4.82;;;;;;;1.82;34.58;95366.84;4914835;29;20047;-75
2022/03/10 11:28:23;;;;;;;4.90;4.45;;;;;;;1.72;35.29;95365.25;4898606;29;20123;-73
2022/03/10 11:30:51;;;;;;;4.65;3.80;;;;;;;1.74;34.70;95363.31;4897972;29;20477;-74
2022/03/10 11:33:16;;;;;;;5.13;4.65;;;;;;;1.89;36.74;95370.34;4898626;29;20064;-74